Time;durP1;ratioP1;P1;durP2;ratioP2;P2;SDS_P1;SDS_P2;PMS_P1;PMS_P2;Temp;Humidity;BMP_temperature;BMP_pressure;BME280_temperature;BME280_humidity;BME280_pressure;Samples;Min_cycle;Max_cycle;Signal;HPM_P1;HPM_P2
2022/11/04 00:01:15;;;;;;;2.00;1.90;;;;;;;;;;4998553;28;20244;-66
2022/11/04 00:03:41;;;;;;;1.60;1.60;;;;;;;;;;4998533;28;20283;-66
2022/11/04 00:06:08;;;;;;;1.60;1.60;;;;;;;;;;5006038;28;20240;-67
2022/11/04 00:08:34;;;;;;;1.70;1.70;;;;;;;;;;5006903;28;20242;-66
2022/11/04 00:13:44;;;;;;;1.77;1.70;;;;;;;;;;5003371;28;20315;-67
2022/11/04 00:18:55;;;;;;;1.90;1.80;;;;;;;;;;5007496;28;20221;-67
2022/11/04 00:29:36;;;;;;;1.70;1.67;;;;;;;;;;5002979;28;20798;-66
2022/11/04 00:34:46;;;;;;;1.60;1.60;;;;;;;;;;5003800;28;20241;-66
2022/11/04 00:37:12;;;;;;;2.17;2.07;;;;;;;;;;4999411;28;20687;-66
2022/11/04 00:39:38;;;;;;;1.73;1.70;;;;;;;;;;4998013;28;20237;-66
2022/11/04 00:42:04;;;;;;;1.83;1.73;;;;;;;;;;5001192;28;20217;-66
2022/11/04 00:44:30;;;;;;;1.60;1.60;;;;;;;;;;5000628;28;20222;-66
2022/11/04 00:46:56;;;;;;;1.80;1.70;;;;;;;;;;5000927;28;20213;-66
2022/11/04 00:49:22;;;;;;;1.77;1.70;;;;;;;;;;4999218;28;20315;-67
2022/11/04 00:51:48;;;;;;;1.73;1.70;;;;;;;;;;5001411;28;20225;-66
2022/11/04 00:54:14;;;;;;;1.53;1.53;;;;;;;;;;4999733;28;20222;-66
2022/11/04 00:56:40;;;;;;;1.57;1.57;;;;;;;;;;4999887;28;21155;-66
2022/11/04 00:59:06;;;;;;;1.90;1.80;;;;;;;;;;4995873;28;20237;-66
2022/11/04 01:01:32;;;;;;;1.70;1.70;;;;;;;;;;4999437;28;20768;-66
2022/11/04 01:03:58;;;;;;;1.80;1.70;;;;;;;;;;4996507;28;20233;-66
2022/11/04 01:06:25;;;;;;;1.60;1.60;;;;;;;;;;4987631;28;21800;-66
2022/11/04 01:08:55;;;;;;;1.83;1.73;;;;;;;;;;4999787;28;20287;-67
2022/11/04 01:11:21;;;;;;;1.50;1.50;;;;;;;;;;4994078;28;20214;-66
2022/11/04 01:13:49;;;;;;;1.70;1.70;;;;;;;;;;4980833;28;20228;-66
2022/11/04 01:16:15;;;;;;;2.10;2.00;;;;;;;;;;4993567;28;20233;-66
2022/11/04 01:18:42;;;;;;;2.00;1.90;;;;;;;;;;4960703;28;20238;-67
2022/11/04 01:21:08;;;;;;;1.97;1.87;;;;;;;;;;4985066;28;20217;-66
2022/11/04 01:23:34;;;;;;;2.00;1.90;;;;;;;;;;4996281;28;20280;-66
2022/11/04 01:26:00;;;;;;;1.50;1.50;;;;;;;;;;4991268;28;22011;-66
2022/11/04 01:28:26;;;;;;;1.97;1.87;;;;;;;;;;4999163;28;20294;-67
2022/11/04 01:30:52;;;;;;;2.07;1.97;;;;;;;;;;4991857;28;20257;-66
2022/11/04 01:33:18;;;;;;;1.90;1.80;;;;;;;;;;5000895;28;20711;-66
2022/11/04 01:35:44;;;;;;;2.00;1.90;;;;;;;;;;4992652;28;20242;-66
2022/11/04 01:38:09;;;;;;;1.63;1.63;;;;;;;;;;4996603;28;20245;-66
2022/11/04 01:40:36;;;;;;;1.60;1.60;;;;;;;;;;4995805;28;20232;-66
2022/11/04 01:43:02;;;;;;;1.60;1.60;;;;;;;;;;4983392;28;20233;-66
2022/11/04 01:45:28;;;;;;;1.73;1.70;;;;;;;;;;4994542;28;20287;-66
2022/11/04 01:48:01;;;;;;;1.87;1.77;;;;;;;;;;4995403;28;20249;-66
2022/11/04 01:50:27;;;;;;;1.80;1.70;;;;;;;;;;4974715;28;21652;-66
2022/11/04 01:52:54;;;;;;;1.60;1.60;;;;;;;;;;4982834;28;20291;-67
2022/11/04 01:55:22;;;;;;;1.50;1.50;;;;;;;;;;4973181;28;20256;-66
2022/11/04 01:57:48;;;;;;;1.83;1.73;;;;;;;;;;4996174;28;20248;-66
2022/11/04 02:00:14;;;;;;;2.03;1.93;;;;;;;;;;4974809;28;20339;-66
2022/11/04 02:02:46;;;;;;;2.03;1.93;;;;;;;;;;5008237;28;20226;-66
2022/11/04 02:05:12;;;;;;;1.90;1.80;;;;;;;;;;4975563;28;20221;-66
2022/11/04 02:07:38;;;;;;;1.60;1.60;;;;;;;;;;4997004;28;20264;-66
2022/11/04 02:10:04;;;;;;;1.73;1.70;;;;;;;;;;5009141;28;20217;-66
2022/11/04 02:12:51;;;;;;;1.70;1.70;;;;;;;;;;5010501;28;20230;-66
2022/11/04 02:15:21;;;;;;;2.23;2.13;;;;;;;;;;5002263;28;20768;-66
2022/11/04 02:17:58;;;;;;;2.10;2.00;;;;;;;;;;4999028;28;20239;-66
2022/11/04 02:20:30;;;;;;;2.03;1.93;;;;;;;;;;4968843;28;20202;-66
2022/11/04 02:23:05;;;;;;;2.00;1.90;;;;;;;;;;5000889;28;20221;-66
2022/11/04 02:25:40;;;;;;;2.10;2.00;;;;;;;;;;4990490;28;20236;-66
2022/11/04 02:28:13;;;;;;;1.97;1.87;;;;;;;;;;4987092;28;20229;-67
2022/11/04 02:30:44;;;;;;;1.90;1.80;;;;;;;;;;4998317;28;20228;-66
2022/11/04 02:33:21;;;;;;;2.03;1.93;;;;;;;;;;4997311;28;20245;-66
2022/11/04 02:35:53;;;;;;;2.10;2.00;;;;;;;;;;4992189;28;20318;-66
2022/11/04 02:38:29;;;;;;;2.17;2.07;;;;;;;;;;4997276;28;20225;-67
2022/11/04 02:41:00;;;;;;;2.00;1.90;;;;;;;;;;5008296;28;20227;-66
2022/11/04 02:43:30;;;;;;;1.90;1.80;;;;;;;;;;4988274;28;20231;-66
2022/11/04 02:46:02;;;;;;;2.07;1.97;;;;;;;;;;4978168;28;20237;-67
2022/11/04 02:48:33;;;;;;;2.00;1.90;;;;;;;;;;4980888;28;20245;-66
2022/11/04 02:51:01;;;;;;;2.03;1.93;;;;;;;;;;4973267;28;20232;-66
2022/11/04 02:53:29;;;;;;;2.03;1.93;;;;;;;;;;4996497;28;20225;-67
2022/11/04 02:55:55;;;;;;;1.80;1.70;;;;;;;;;;4991858;28;20206;-66
2022/11/04 02:58:22;;;;;;;2.10;2.00;;;;;;;;;;4978464;28;20683;-66
2022/11/04 03:00:48;;;;;;;1.97;1.87;;;;;;;;;;4999036;28;20347;-66
2022/11/04 03:03:15;;;;;;;2.03;1.93;;;;;;;;;;4966720;28;20258;-66
2022/11/04 03:05:42;;;;;;;1.90;1.80;;;;;;;;;;4969164;28;20232;-66
2022/11/04 03:08:14;;;;;;;1.60;1.60;;;;;;;;;;4991664;28;20244;-66
2022/11/04 03:10:43;;;;;;;1.67;1.67;;;;;;;;;;4972750;28;20284;-67
2022/11/04 03:13:16;;;;;;;1.63;1.63;;;;;;;;;;4978372;28;20291;-66
2022/11/04 03:15:46;;;;;;;1.50;1.50;;;;;;;;;;5001489;28;20315;-66
2022/11/04 03:18:12;;;;;;;1.63;1.63;;;;;;;;;;4982899;28;20286;-66
2022/11/04 03:20:38;;;;;;;1.50;1.50;;;;;;;;;;4995736;28;20304;-66
2022/11/04 03:23:04;;;;;;;1.50;1.50;;;;;;;;;;4983949;28;20661;-67
2022/11/04 03:25:34;;;;;;;1.50;1.50;;;;;;;;;;4997047;28;20229;-67
2022/11/04 03:28:00;;;;;;;1.40;1.40;;;;;;;;;;4984839;28;20489;-66
2022/11/04 03:30:26;;;;;;;1.63;1.63;;;;;;;;;;4991272;28;20802;-66
2022/11/04 03:32:52;;;;;;;1.43;1.43;;;;;;;;;;4998255;28;20324;-67
2022/11/04 03:35:18;;;;;;;1.30;1.30;;;;;;;;;;4990347;28;20229;-66
2022/11/04 03:37:44;;;;;;;1.57;1.57;;;;;;;;;;4978201;28;20299;-66
2022/11/04 03:40:10;;;;;;;1.60;1.60;;;;;;;;;;4992917;28;20218;-67
2022/11/04 03:42:37;;;;;;;1.40;1.40;;;;;;;;;;4991368;28;20279;-66
2022/11/04 03:45:04;;;;;;;1.47;1.47;;;;;;;;;;4977662;28;20308;-66
2022/11/04 03:47:30;;;;;;;1.37;1.37;;;;;;;;;;4992927;28;20236;-66
2022/11/04 03:50:00;;;;;;;1.40;1.40;;;;;;;;;;4987989;28;20222;-66
2022/11/04 03:52:25;;;;;;;1.30;1.30;;;;;;;;;;4978323;28;20945;-66
2022/11/04 03:54:51;;;;;;;1.50;1.50;;;;;;;;;;4997156;28;20232;-66
2022/11/04 03:57:21;;;;;;;1.20;1.20;;;;;;;;;;4997264;28;20285;-66
2022/11/04 04:00:09;;;;;;;1.20;1.20;;;;;;;;;;4975111;28;20228;-66
2022/11/04 04:02:35;;;;;;;1.20;1.20;;;;;;;;;;5000939;28;20228;-66
2022/11/04 04:05:24;;;;;;;1.37;1.37;;;;;;;;;;4984484;28;20229;-67
2022/11/04 04:07:59;;;;;;;1.30;1.30;;;;;;;;;;4980689;28;21019;-67
2022/11/04 04:10:39;;;;;;;1.17;1.17;;;;;;;;;;4980216;28;21006;-66
2022/11/04 04:13:18;;;;;;;1.20;1.20;;;;;;;;;;4997739;28;20221;-66
2022/11/04 04:15:50;;;;;;;1.40;1.40;;;;;;;;;;4992450;28;20219;-66
2022/11/04 04:18:16;;;;;;;1.20;1.20;;;;;;;;;;5007723;28;20229;-66
2022/11/04 04:20:42;;;;;;;1.30;1.30;;;;;;;;;;4992886;28;20225;-66
2022/11/04 04:28:39;;;;;;;1.20;1.20;;;;;;;;;;5000736;28;20244;-66
2022/11/04 04:31:05;;;;;;;1.50;1.50;;;;;;;;;;4984991;28;20229;-67
2022/11/04 04:33:31;;;;;;;1.20;1.20;;;;;;;;;;4995965;28;20214;-66
2022/11/04 04:35:56;;;;;;;1.20;1.20;;;;;;;;;;4968868;28;20225;-66
2022/11/04 04:47:02;;;;;;;1.40;1.40;;;;;;;;;;4971734;28;20435;-66
2022/11/04 04:49:33;;;;;;;1.20;1.20;;;;;;;;;;4991606;28;20225;-67
2022/11/04 04:52:00;;;;;;;1.20;1.20;;;;;;;;;;4994394;28;20208;-66
2022/11/04 04:54:26;;;;;;;1.20;1.20;;;;;;;;;;4977339;28;20271;-66
2022/11/04 04:56:52;;;;;;;1.27;1.27;;;;;;;;;;4997937;28;20233;-66
2022/11/04 04:59:18;;;;;;;1.20;1.20;;;;;;;;;;4993333;28;20791;-66
2022/11/04 05:01:44;;;;;;;1.13;1.13;;;;;;;;;;4992668;28;20582;-66
2022/11/04 05:04:10;;;;;;;1.30;1.30;;;;;;;;;;4993114;28;21701;-67
2022/11/04 05:06:36;;;;;;;1.30;1.30;;;;;;;;;;4991044;28;20234;-66
2022/11/04 05:09:02;;;;;;;1.40;1.40;;;;;;;;;;4999595;28;20224;-66
2022/11/04 05:11:27;;;;;;;1.10;1.10;;;;;;;;;;5000753;28;20225;-66
2022/11/04 05:13:53;;;;;;;1.10;1.10;;;;;;;;;;4980465;28;20249;-66
2022/11/04 05:16:19;;;;;;;1.00;1.00;;;;;;;;;;4990745;28;20217;-66
2022/11/04 05:18:45;;;;;;;1.30;1.30;;;;;;;;;;4991927;28;20241;-67
2022/11/04 05:21:12;;;;;;;1.10;1.10;;;;;;;;;;4988790;28;20225;-66
2022/11/04 05:23:38;;;;;;;1.10;1.10;;;;;;;;;;4978152;28;20239;-67
2022/11/04 05:26:04;;;;;;;1.30;1.30;;;;;;;;;;4983655;28;20241;-63
2022/11/04 05:28:30;;;;;;;1.17;1.17;;;;;;;;;;4976243;28;20332;-67
2022/11/04 05:30:56;;;;;;;1.23;1.23;;;;;;;;;;4977511;28;20312;-68
2022/11/04 05:33:22;;;;;;;1.20;1.20;;;;;;;;;;4976999;28;20288;-68
2022/11/04 05:35:48;;;;;;;1.43;1.43;;;;;;;;;;4976035;28;20238;-68
2022/11/04 05:38:14;;;;;;;1.40;1.40;;;;;;;;;;4983014;28;20283;-67
2022/11/04 05:40:40;;;;;;;1.37;1.37;;;;;;;;;;4981688;28;20711;-68
2022/11/04 05:43:06;;;;;;;1.23;1.23;;;;;;;;;;4984520;28;20231;-70
2022/11/04 05:45:32;;;;;;;1.23;1.23;;;;;;;;;;4988095;28;20583;-69
2022/11/04 05:47:59;;;;;;;1.20;1.20;;;;;;;;;;4985785;28;20272;-69
2022/11/04 05:50:25;;;;;;;1.10;1.10;;;;;;;;;;4979587;28;20228;-69
2022/11/04 05:52:51;;;;;;;1.10;1.10;;;;;;;;;;4980471;28;20216;-69
2022/11/04 05:55:17;;;;;;;1.40;1.40;;;;;;;;;;4968527;28;20221;-67
2022/11/04 05:57:42;;;;;;;1.20;1.20;;;;;;;;;;4973913;28;20348;-70
2022/11/04 06:00:09;;;;;;;1.40;1.40;;;;;;;;;;4968642;28;20567;-70
2022/11/04 06:02:35;;;;;;;1.30;1.30;;;;;;;;;;4976581;28;20256;-70
2022/11/04 06:05:01;;;;;;;1.20;1.20;;;;;;;;;;4983369;28;20297;-70
2022/11/04 06:07:27;;;;;;;1.40;1.40;;;;;;;;;;4979537;28;21000;-70
2022/11/04 06:09:53;;;;;;;1.40;1.40;;;;;;;;;;4954157;28;20697;-68
2022/11/04 06:12:19;;;;;;;1.20;1.20;;;;;;;;;;4951090;28;20308;-64
2022/11/04 06:14:45;;;;;;;1.30;1.30;;;;;;;;;;4959754;28;20333;-71
2022/11/04 06:17:14;;;;;;;1.40;1.40;;;;;;;;;;4959700;28;20595;-69
2022/11/04 06:19:41;;;;;;;1.33;1.33;;;;;;;;;;4965776;28;20219;-68
2022/11/04 06:22:06;;;;;;;1.43;1.43;;;;;;;;;;4980487;28;20229;-67
2022/11/04 06:24:32;;;;;;;1.20;1.20;;;;;;;;;;4976203;28;20226;-66
2022/11/04 06:26:58;;;;;;;1.43;1.43;;;;;;;;;;4974181;28;20911;-69
2022/11/04 06:29:24;;;;;;;1.20;1.20;;;;;;;;;;4975334;28;20617;-69
2022/11/04 06:31:50;;;;;;;1.40;1.40;;;;;;;;;;4975960;28;20708;-67
2022/11/04 06:34:16;;;;;;;1.57;1.57;;;;;;;;;;4979459;28;20307;-68
2022/11/04 06:36:42;;;;;;;1.47;1.47;;;;;;;;;;4970178;28;20229;-70
2022/11/04 06:39:08;;;;;;;1.77;1.70;;;;;;;;;;4974297;28;20267;-69
2022/11/04 06:41:34;;;;;;;1.37;1.37;;;;;;;;;;4973603;28;20226;-70
2022/11/04 06:44:00;;;;;;;1.30;1.30;;;;;;;;;;4971892;28;20805;-68
2022/11/04 06:46:52;;;;;;;1.57;1.57;;;;;;;;;;4966436;28;20822;-69
2022/11/04 06:49:19;;;;;;;1.47;1.47;;;;;;;;;;4972335;28;20320;-68
2022/11/04 06:51:45;;;;;;;1.27;1.27;;;;;;;;;;4960994;28;20233;-67
2022/11/04 06:54:11;;;;;;;1.20;1.20;;;;;;;;;;4973546;28;22368;-70
2022/11/04 06:56:37;;;;;;;1.30;1.30;;;;;;;;;;4977108;28;21262;-69
2022/11/04 06:59:03;;;;;;;1.10;1.10;;;;;;;;;;4967302;28;21523;-69
2022/11/04 07:01:29;;;;;;;1.40;1.40;;;;;;;;;;4973656;28;20230;-70
2022/11/04 07:03:56;;;;;;;1.20;1.20;;;;;;;;;;4966195;28;20694;-67
2022/11/04 07:06:22;;;;;;;1.40;1.40;;;;;;;;;;4973554;28;20235;-70
2022/11/04 07:08:48;;;;;;;1.17;1.17;;;;;;;;;;4970754;28;20700;-70
2022/11/04 07:11:14;;;;;;;1.30;1.30;;;;;;;;;;4974844;28;20256;-69
2022/11/04 07:13:40;;;;;;;1.20;1.20;;;;;;;;;;4973061;28;20289;-70
2022/11/04 07:16:06;;;;;;;1.30;1.30;;;;;;;;;;4968451;28;20237;-66
2022/11/04 07:18:32;;;;;;;1.30;1.30;;;;;;;;;;4965926;28;20223;-70
2022/11/04 07:20:58;;;;;;;1.20;1.20;;;;;;;;;;4961484;28;20312;-67
2022/11/04 07:23:24;;;;;;;1.10;1.10;;;;;;;;;;4963971;28;20668;-69
2022/11/04 07:25:52;;;;;;;1.20;1.20;;;;;;;;;;4964410;28;20243;-70
2022/11/04 07:28:18;;;;;;;1.30;1.30;;;;;;;;;;4972475;28;20728;-67
2022/11/04 07:30:44;;;;;;;1.10;1.10;;;;;;;;;;4958494;28;20226;-70
2022/11/04 07:33:10;;;;;;;1.10;1.10;;;;;;;;;;4969852;28;20222;-70
2022/11/04 07:35:36;;;;;;;1.10;1.10;;;;;;;;;;4969560;28;20327;-70
2022/11/04 07:38:02;;;;;;;1.20;1.20;;;;;;;;;;4973872;28;20237;-70
2022/11/04 07:40:29;;;;;;;1.10;1.10;;;;;;;;;;4973363;28;20680;-70
2022/11/04 07:42:55;;;;;;;1.10;1.10;;;;;;;;;;4980728;28;20747;-70
2022/11/04 07:45:20;;;;;;;1.20;1.20;;;;;;;;;;4984779;28;20230;-70
2022/11/04 07:47:46;;;;;;;1.10;1.10;;;;;;;;;;4973981;28;20251;-67
2022/11/04 07:50:12;;;;;;;1.10;1.10;;;;;;;;;;4975032;28;20278;-70
2022/11/04 07:52:38;;;;;;;1.10;1.10;;;;;;;;;;4968377;28;20693;-67
2022/11/04 07:55:04;;;;;;;1.10;1.10;;;;;;;;;;4970106;28;20242;-70
2022/11/04 07:57:30;;;;;;;1.27;1.27;;;;;;;;;;4984008;28;20229;-70
2022/11/04 07:59:56;;;;;;;1.10;1.10;;;;;;;;;;4975218;28;20576;-70
2022/11/04 08:02:22;;;;;;;1.30;1.30;;;;;;;;;;4971139;28;20796;-70
2022/11/04 08:04:49;;;;;;;1.13;1.13;;;;;;;;;;4974203;28;20218;-71
2022/11/04 08:07:15;;;;;;;1.20;1.20;;;;;;;;;;4973355;28;20348;-70
2022/11/04 08:09:41;;;;;;;1.27;1.27;;;;;;;;;;4968455;28;20339;-68
2022/11/04 08:12:07;;;;;;;1.10;1.10;;;;;;;;;;4961649;28;21081;-69
2022/11/04 08:14:33;;;;;;;1.10;1.10;;;;;;;;;;4977626;28;20304;-70
2022/11/04 08:16:59;;;;;;;1.13;1.13;;;;;;;;;;4968673;28;20226;-70
2022/11/04 08:19:26;;;;;;;1.37;1.37;;;;;;;;;;4975382;28;20229;-71
2022/11/04 08:21:52;;;;;;;1.10;1.10;;;;;;;;;;4969805;28;20299;-70
2022/11/04 08:24:18;;;;;;;1.20;1.20;;;;;;;;;;4967225;28;20227;-71
2022/11/04 08:26:45;;;;;;;1.20;1.20;;;;;;;;;;4971974;28;20552;-71
2022/11/04 08:29:11;;;;;;;1.10;1.10;;;;;;;;;;4962228;28;20750;-70
2022/11/04 08:31:38;;;;;;;1.27;1.27;;;;;;;;;;4973277;28;20612;-69
2022/11/04 08:34:05;;;;;;;1.20;1.20;;;;;;;;;;4973217;28;20770;-70
2022/11/04 08:36:31;;;;;;;1.10;1.10;;;;;;;;;;4957509;28;20234;-67
2022/11/04 08:38:58;;;;;;;1.10;1.10;;;;;;;;;;4966207;28;20240;-68
2022/11/04 08:41:25;;;;;;;1.20;1.20;;;;;;;;;;4974898;28;20304;-71
2022/11/04 08:43:51;;;;;;;1.20;1.20;;;;;;;;;;4961898;28;20217;-67
2022/11/04 08:46:17;;;;;;;1.00;1.00;;;;;;;;;;4973394;28;20563;-69
2022/11/04 08:48:43;;;;;;;1.20;1.20;;;;;;;;;;4970873;28;20242;-71
2022/11/04 08:51:13;;;;;;;1.00;1.00;;;;;;;;;;4967946;28;20243;-70
2022/11/04 08:53:39;;;;;;;1.00;1.00;;;;;;;;;;4973739;28;20233;-70
2022/11/04 08:56:09;;;;;;;1.10;1.10;;;;;;;;;;4968614;28;20231;-68
2022/11/04 08:58:34;;;;;;;1.00;1.00;;;;;;;;;;4966876;28;20257;-71
2022/11/04 09:01:02;;;;;;;1.00;1.00;;;;;;;;;;4979785;28;20325;-71
2022/11/04 09:03:29;;;;;;;0.90;0.90;;;;;;;;;;4971094;28;20249;-70
2022/11/04 09:05:55;;;;;;;1.00;1.00;;;;;;;;;;4970893;28;20226;-71
2022/11/04 09:08:21;;;;;;;0.90;0.90;;;;;;;;;;4974652;28;20283;-67
2022/11/04 09:10:47;;;;;;;0.90;0.90;;;;;;;;;;4969014;28;20225;-70
2022/11/04 09:13:14;;;;;;;0.90;0.90;;;;;;;;;;4971200;28;20257;-70
2022/11/04 09:15:40;;;;;;;1.00;1.00;;;;;;;;;;4975293;28;20723;-70
2022/11/04 09:18:06;;;;;;;1.00;1.00;;;;;;;;;;4975694;28;20218;-67
2022/11/04 09:20:32;;;;;;;1.00;1.00;;;;;;;;;;4970213;28;20582;-70
2022/11/04 09:22:58;;;;;;;0.93;0.93;;;;;;;;;;4979047;28;20587;-70
2022/11/04 09:25:24;;;;;;;1.00;1.00;;;;;;;;;;4960499;28;20242;-71
2022/11/04 09:27:50;;;;;;;1.10;1.10;;;;;;;;;;4964877;28;20347;-71
2022/11/04 09:30:16;;;;;;;1.17;1.17;;;;;;;;;;4964837;28;20254;-70
2022/11/04 09:32:42;;;;;;;1.27;1.27;;;;;;;;;;4951168;28;20705;-70
2022/11/04 09:35:08;;;;;;;0.70;0.70;;;;;;;;;;4966652;28;20895;-70
2022/11/04 09:37:34;;;;;;;1.10;1.10;;;;;;;;;;4965671;28;20722;-68
2022/11/04 09:40:00;;;;;;;1.20;1.20;;;;;;;;;;4974305;28;20230;-70
2022/11/04 09:42:38;;;;;;;1.00;1.00;;;;;;;;;;4967002;28;20229;-69
2022/11/04 09:45:05;;;;;;;1.10;1.10;;;;;;;;;;4961511;28;20727;-69
2022/11/04 09:47:31;;;;;;;2.27;2.17;;;;;;;;;;4975121;28;20231;-68
2022/11/04 09:49:57;;;;;;;2.40;2.30;;;;;;;;;;4964415;28;20214;-70
2022/11/04 09:52:24;;;;;;;2.10;2.00;;;;;;;;;;4972199;28;20241;-69
2022/11/04 09:54:52;;;;;;;1.90;1.80;;;;;;;;;;4958374;28;20309;-70
2022/11/04 09:57:18;;;;;;;1.83;1.73;;;;;;;;;;4970428;28;20742;-69
2022/11/04 09:59:44;;;;;;;2.00;1.90;;;;;;;;;;4965916;28;20236;-70
2022/11/04 10:02:10;;;;;;;2.00;1.90;;;;;;;;;;4970892;28;20771;-69
2022/11/04 10:04:36;;;;;;;1.97;1.87;;;;;;;;;;4961476;28;20625;-70
2022/11/04 10:07:05;;;;;;;2.10;2.00;;;;;;;;;;4966321;28;20252;-70
2022/11/04 10:09:38;;;;;;;2.07;1.97;;;;;;;;;;4964066;28;21500;-70
2022/11/04 10:12:23;;;;;;;2.00;1.90;;;;;;;;;;4959380;28;20226;-68
2022/11/04 10:14:52;;;;;;;1.90;1.80;;;;;;;;;;4971710;28;20248;-69
2022/11/04 10:17:24;;;;;;;2.23;2.13;;;;;;;;;;4967648;28;20317;-68
2022/11/04 10:20:13;;;;;;;2.07;1.97;;;;;;;;;;4966868;28;20230;-70
2022/11/04 10:22:42;;;;;;;2.00;1.90;;;;;;;;;;4954052;28;20229;-66
2022/11/04 10:25:10;;;;;;;1.90;1.80;;;;;;;;;;4938948;28;20562;-68
2022/11/04 10:27:37;;;;;;;1.90;1.80;;;;;;;;;;4955455;28;20569;-67
2022/11/04 10:30:09;;;;;;;2.00;1.90;;;;;;;;;;4972477;28;20313;-68
2022/11/04 10:32:46;;;;;;;1.50;1.50;;;;;;;;;;4949424;28;20280;-67
2022/11/04 10:35:17;;;;;;;1.50;1.50;;;;;;;;;;4967192;28;20237;-70
2022/11/04 10:37:42;;;;;;;1.97;1.87;;;;;;;;;;4961877;28;20225;-67
2022/11/04 10:40:24;;;;;;;1.90;1.80;;;;;;;;;;4965672;28;20225;-70
2022/11/04 10:42:50;;;;;;;2.30;2.20;;;;;;;;;;4968328;28;20219;-68
2022/11/04 10:45:16;;;;;;;2.00;1.90;;;;;;;;;;4973240;28;20225;-69
2022/11/04 10:47:45;;;;;;;2.10;2.00;;;;;;;;;;4964103;28;20579;-68
2022/11/04 10:50:11;;;;;;;2.50;2.40;;;;;;;;;;4963465;28;20804;-70
2022/11/04 10:52:37;;;;;;;1.80;1.70;;;;;;;;;;4968784;28;20261;-70
2022/11/04 10:55:03;;;;;;;3.03;2.93;;;;;;;;;;4982279;28;20214;-70
2022/11/04 10:57:29;;;;;;;2.23;2.13;;;;;;;;;;4959043;28;20299;-67
2022/11/04 11:00:02;;;;;;;2.30;2.20;;;;;;;;;;4968479;28;20228;-70
2022/11/04 11:02:37;;;;;;;1.90;1.80;;;;;;;;;;4970892;28;20233;-70
2022/11/04 11:05:18;;;;;;;2.00;1.90;;;;;;;;;;4968920;28;20320;-68
2022/11/04 11:07:44;;;;;;;2.00;1.90;;;;;;;;;;4958691;28;20237;-70
2022/11/04 11:10:36;;;;;;;2.30;2.20;;;;;;;;;;4972489;28;20225;-70
2022/11/04 11:13:05;;;;;;;2.20;2.10;;;;;;;;;;4971418;28;20677;-70
2022/11/04 11:15:34;;;;;;;1.90;1.80;;;;;;;;;;4961201;28;20223;-69
2022/11/04 11:18:00;;;;;;;1.67;1.67;;;;;;;;;;4973927;28;20747;-67
2022/11/04 11:20:27;;;;;;;2.00;1.90;;;;;;;;;;4967703;28;20732;-70
2022/11/04 11:22:55;;;;;;;1.90;1.80;;;;;;;;;;4966598;28;20292;-69
2022/11/04 11:25:22;;;;;;;1.80;1.70;;;;;;;;;;4966542;28;20276;-70
2022/11/04 11:27:50;;;;;;;1.90;1.80;;;;;;;;;;4967069;28;20245;-70
2022/11/04 11:30:19;;;;;;;1.60;1.60;;;;;;;;;;4961064;28;20218;-67
2022/11/04 11:32:52;;;;;;;2.00;1.90;;;;;;;;;;4973054;28;20255;-71
2022/11/04 11:35:18;;;;;;;1.97;1.87;;;;;;;;;;4968900;28;20229;-69
2022/11/04 11:37:47;;;;;;;1.80;1.70;;;;;;;;;;4969102;28;20238;-70
2022/11/04 11:40:23;;;;;;;1.90;1.80;;;;;;;;;;4974900;28;20276;-69
2022/11/04 11:42:49;;;;;;;1.60;1.60;;;;;;;;;;4959968;28;20226;-70
2022/11/04 11:45:15;;;;;;;1.50;1.50;;;;;;;;;;4960517;28;20229;-69
2022/11/04 11:47:42;;;;;;;1.70;1.70;;;;;;;;;;4963460;28;20586;-70
2022/11/04 11:50:23;;;;;;;1.90;1.80;;;;;;;;;;4957880;28;20699;-69
2022/11/04 11:52:49;;;;;;;1.93;1.83;;;;;;;;;;4948551;28;20493;-68
2022/11/04 11:55:19;;;;;;;1.90;1.80;;;;;;;;;;4968063;28;20221;-70
2022/11/04 11:58:03;;;;;;;1.70;1.70;;;;;;;;;;4944678;28;20237;-69
2022/11/04 12:00:31;;;;;;;1.60;1.60;;;;;;;;;;4955226;28;20597;-68
2022/11/04 12:03:00;;;;;;;1.60;1.60;;;;;;;;;;4948667;28;20732;-70
2022/11/04 12:05:38;;;;;;;1.60;1.60;;;;;;;;;;4970594;28;20798;-67
2022/11/04 12:08:08;;;;;;;1.80;1.70;;;;;;;;;;4960306;28;20366;-71
2022/11/04 12:10:38;;;;;;;1.60;1.60;;;;;;;;;;4941109;28;20608;-70
2022/11/04 12:13:15;;;;;;;1.67;1.67;;;;;;;;;;4947495;28;20231;-66
2022/11/04 12:15:52;;;;;;;1.60;1.60;;;;;;;;;;4944150;28;20226;-68
2022/11/04 12:18:33;;;;;;;1.87;1.77;;;;;;;;;;4948924;28;21032;-68
2022/11/04 12:20:59;;;;;;;1.83;1.73;;;;;;;;;;4930384;28;20353;-67
2022/11/04 12:23:29;;;;;;;1.80;1.70;;;;;;;;;;4938800;28;20226;-66
2022/11/04 12:26:05;;;;;;;2.00;1.90;;;;;;;;;;4919413;28;20712;-66
2022/11/04 12:28:31;;;;;;;1.97;1.87;;;;;;;;;;4936986;28;20783;-68
2022/11/04 12:31:13;;;;;;;1.00;1.00;;;;;;;;;;4943282;28;20234;-68
2022/11/04 12:33:40;;;;;;;1.00;1.00;;;;;;;;;;4942548;28;20525;-67
2022/11/04 12:36:12;;;;;;;0.97;0.97;;;;;;;;;;4931598;28;21123;-68
2022/11/04 12:38:41;;;;;;;1.20;1.20;;;;;;;;;;4944800;28;20218;-68
2022/11/04 12:41:26;;;;;;;1.00;1.00;;;;;;;;;;4953683;28;20219;-67
2022/11/04 12:44:08;;;;;;;0.90;0.90;;;;;;;;;;4934430;28;20260;-67
2022/11/04 12:46:39;;;;;;;1.17;1.17;;;;;;;;;;4937866;28;20234;-66
2022/11/04 12:49:24;;;;;;;1.10;1.10;;;;;;;;;;4948166;28;20304;-68
2022/11/04 12:51:56;;;;;;;1.40;1.40;;;;;;;;;;4939084;28;20672;-68
2022/11/04 12:54:35;;;;;;;1.10;1.10;;;;;;;;;;4949634;28;20783;-66
2022/11/04 12:57:07;;;;;;;1.23;1.23;;;;;;;;;;4954203;28;20237;-68
2022/11/04 12:59:42;;;;;;;1.10;1.10;;;;;;;;;;4948286;28;20226;-67
2022/11/04 13:02:16;;;;;;;1.00;1.00;;;;;;;;;;4948843;28;20245;-66
2022/11/04 13:04:45;;;;;;;1.30;1.30;;;;;;;;;;4945021;28;20238;-67
2022/11/04 13:07:22;;;;;;;1.20;1.20;;;;;;;;;;4942984;28;20246;-66
2022/11/04 13:09:49;;;;;;;1.10;1.10;;;;;;;;;;4959520;28;20226;-67
2022/11/04 13:12:19;;;;;;;1.00;1.00;;;;;;;;;;4941476;28;20226;-67
2022/11/04 13:14:52;;;;;;;1.30;1.30;;;;;;;;;;4939549;28;20714;-67
2022/11/04 13:17:24;;;;;;;1.27;1.27;;;;;;;;;;4952254;28;20430;-66
2022/11/04 13:19:51;;;;;;;1.00;1.00;;;;;;;;;;4952181;28;20231;-68
2022/11/04 13:22:27;;;;;;;0.90;0.90;;;;;;;;;;4941578;28;20253;-67
2022/11/04 13:25:11;;;;;;;1.20;1.20;;;;;;;;;;4933165;28;20223;-67
2022/11/04 13:27:38;;;;;;;1.20;1.20;;;;;;;;;;4953464;28;20399;-67
2022/11/04 13:30:06;;;;;;;1.10;1.10;;;;;;;;;;4954612;28;20230;-67
2022/11/04 13:32:33;;;;;;;1.00;1.00;;;;;;;;;;4939623;28;20546;-68
2022/11/04 13:35:18;;;;;;;1.30;1.30;;;;;;;;;;4922523;28;20630;-67
2022/11/04 13:37:48;;;;;;;1.30;1.30;;;;;;;;;;4896239;28;20277;-66
2022/11/04 13:40:18;;;;;;;1.10;1.10;;;;;;;;;;4937033;28;20240;-67
2022/11/04 13:42:48;;;;;;;1.27;1.27;;;;;;;;;;4920764;28;20234;-68
2022/11/04 13:45:15;;;;;;;1.37;1.37;;;;;;;;;;4948637;28;20269;-67
2022/11/04 13:47:45;;;;;;;1.00;1.00;;;;;;;;;;4951534;28;20638;-67
2022/11/04 13:50:29;;;;;;;1.20;1.20;;;;;;;;;;4950442;28;20225;-67
2022/11/04 13:52:55;;;;;;;1.00;1.00;;;;;;;;;;4952052;28;20230;-67
2022/11/04 13:55:21;;;;;;;0.97;0.97;;;;;;;;;;4955544;28;20242;-67
2022/11/04 13:57:52;;;;;;;1.00;1.00;;;;;;;;;;4921615;28;20374;-67
2022/11/04 14:00:19;;;;;;;1.07;1.07;;;;;;;;;;4937395;28;20226;-68
2022/11/04 14:02:46;;;;;;;1.20;1.20;;;;;;;;;;4955388;28;20218;-68
2022/11/04 14:05:27;;;;;;;1.00;1.00;;;;;;;;;;4932730;28;20231;-68
2022/11/04 14:07:59;;;;;;;1.10;1.10;;;;;;;;;;4956502;28;20323;-66
2022/11/04 14:10:38;;;;;;;1.13;1.13;;;;;;;;;;4961008;28;21771;-67
2022/11/04 14:13:23;;;;;;;1.00;1.00;;;;;;;;;;4960104;28;20308;-68
2022/11/04 14:16:04;;;;;;;1.20;1.20;;;;;;;;;;4944496;28;20336;-68
2022/11/04 14:18:48;;;;;;;1.10;1.10;;;;;;;;;;4963215;28;20249;-67
2022/11/04 14:21:15;;;;;;;1.00;1.00;;;;;;;;;;4951470;28;20234;-68
2022/11/04 14:24:01;;;;;;;1.10;1.10;;;;;;;;;;4946905;28;20219;-67
2022/11/04 14:26:43;;;;;;;1.10;1.10;;;;;;;;;;4940067;28;20618;-68
2022/11/04 14:29:15;;;;;;;1.00;1.00;;;;;;;;;;4931017;28;20226;-66
2022/11/04 14:31:42;;;;;;;1.10;1.10;;;;;;;;;;4934286;28;20701;-68
2022/11/04 14:34:16;;;;;;;1.00;1.00;;;;;;;;;;4935641;28;20873;-67
2022/11/04 14:36:42;;;;;;;1.00;1.00;;;;;;;;;;4919693;28;20495;-66
2022/11/04 14:39:11;;;;;;;1.00;1.00;;;;;;;;;;4963825;28;20222;-66
2022/11/04 14:41:40;;;;;;;1.10;1.10;;;;;;;;;;4952965;28;20714;-68
2022/11/04 14:44:12;;;;;;;1.10;1.10;;;;;;;;;;4951529;28;20747;-68
2022/11/04 14:46:42;;;;;;;1.00;1.00;;;;;;;;;;4958744;28;20226;-66
2022/11/04 14:49:17;;;;;;;1.00;1.00;;;;;;;;;;4961550;28;20261;-67
2022/11/04 14:51:43;;;;;;;1.10;1.10;;;;;;;;;;4945818;28;20234;-67
2022/11/04 14:54:19;;;;;;;1.10;1.10;;;;;;;;;;4963240;28;20218;-67
2022/11/04 14:56:48;;;;;;;1.00;1.00;;;;;;;;;;4956866;28;20665;-68
2022/11/04 14:59:20;;;;;;;1.10;1.10;;;;;;;;;;4956486;28;20677;-67
2022/11/04 15:01:47;;;;;;;1.20;1.20;;;;;;;;;;4953885;28;20236;-67
2022/11/04 15:04:14;;;;;;;1.20;1.20;;;;;;;;;;4950868;28;20226;-67
2022/11/04 15:06:40;;;;;;;0.80;0.80;;;;;;;;;;4953424;28;20219;-66
2022/11/04 15:09:17;;;;;;;1.27;1.27;;;;;;;;;;4984687;28;20277;-67
2022/11/04 15:14:28;;;;;;;1.03;1.03;;;;;;;;;;4939533;28;20256;-68
2022/11/04 15:16:55;;;;;;;1.00;1.00;;;;;;;;;;4948300;28;20221;-67
2022/11/04 15:19:28;;;;;;;1.20;1.20;;;;;;;;;;4932618;28;20227;-68
2022/11/04 15:21:54;;;;;;;1.07;1.07;;;;;;;;;;4960513;28;20235;-67
2022/11/04 15:24:20;;;;;;;1.27;1.27;;;;;;;;;;4928728;28;20301;-68
2022/11/04 15:26:52;;;;;;;0.90;0.90;;;;;;;;;;4934222;28;20233;-67